createdAt,value
2023-04-29T00:01:00.046Z,1.2538
2023-04-29T00:02:03.024Z,1.2769
2023-04-29T00:03:06.112Z,1.1769
2023-04-29T00:04:09.052Z,1.4154
2023-04-29T00:05:12.238Z,1.1846
2023-04-29T00:06:15.035Z,1.1077
2023-04-29T00:07:17.826Z,1.2154
2023-04-29T00:08:20.750Z,1.1385
2023-04-29T00:09:23.728Z,1.2308
2023-04-29T00:10:26.668Z,1.2077
2023-04-29T00:11:29.614Z,1.0462
2023-04-29T00:12:32.589Z,1.1154
2023-04-29T00:13:35.513Z,1.0769
2023-04-29T00:14:38.467Z,1.1000
2023-04-29T00:15:41.423Z,1.1308
2023-04-29T00:16:44.368Z,1.2077
2023-04-29T00:17:47.373Z,1.2769
2023-04-29T00:18:50.271Z,1.0846
2023-04-29T00:19:53.440Z,0.9846
2023-04-29T00:20:56.149Z,0.9462
2023-04-29T00:21:59.103Z,1.0462
2023-04-29T00:23:02.043Z,1.0077
2023-04-29T00:24:05.038Z,1.1615
2023-04-29T00:25:07.969Z,1.0615
2023-04-29T00:26:10.878Z,1.1846
2023-04-29T00:27:13.821Z,1.2231
2023-04-29T00:28:16.803Z,1.2769
2023-04-29T00:29:19.715Z,1.1385
2023-04-29T00:30:22.690Z,1.1077
2023-04-29T00:31:25.694Z,1.1385
2023-04-29T00:32:28.597Z,1.2462
2023-04-29T00:33:31.526Z,1.2077
2023-04-29T00:34:34.486Z,1.4000
2023-04-29T00:35:37.388Z,1.2000
2023-04-29T00:36:40.342Z,1.3692
2023-04-29T00:37:43.316Z,1.3077
2023-04-29T00:38:46.270Z,1.4077
2023-04-29T00:39:49.203Z,1.2462
2023-04-29T00:40:52.128Z,1.1538
2023-04-29T00:41:55.064Z,1.3154
2023-04-29T00:42:58.027Z,1.2154
2023-04-29T00:44:00.970Z,1.2538
2023-04-29T00:45:04.326Z,1.2923
2023-04-29T00:46:07.068Z,1.2846
2023-04-29T00:47:09.846Z,1.1846
2023-04-29T00:48:12.763Z,1.1154
2023-04-29T00:49:15.730Z,1.1154
2023-04-29T00:50:18.713Z,1.2077
2023-04-29T00:51:21.601Z,1.1538
2023-04-29T00:52:24.557Z,0.9077
2023-04-29T00:53:27.506Z,0.8385
2023-04-29T00:54:30.472Z,0.9154
2023-04-29T00:55:33.451Z,0.9462
2023-04-29T00:56:36.400Z,0.9846
2023-04-29T00:57:39.318Z,1.1615
2023-04-29T00:58:42.251Z,0.7615
2023-04-29T00:59:45.212Z,0.9308
2023-04-29T01:00:48.182Z,0.9385
2023-04-29T01:01:51.237Z,0.8692
2023-04-29T01:02:54.178Z,0.9077
2023-04-29T01:03:57.220Z,0.8231
2023-04-29T01:04:59.958Z,0.7231
2023-04-29T01:06:02.947Z,1.0385
2023-04-29T01:07:05.858Z,0.9000
2023-04-29T01:08:08.865Z,0.9154
2023-04-29T01:09:11.792Z,0.9846
2023-04-29T01:10:14.730Z,0.9000
2023-04-29T01:11:17.682Z,0.9385
2023-04-29T01:12:20.621Z,1.1538
2023-04-29T01:13:23.580Z,1.1308
2023-04-29T01:14:26.517Z,1.0000
2023-04-29T01:15:29.528Z,0.9769
2023-04-29T01:16:32.541Z,0.8308
2023-04-29T01:17:35.383Z,0.9385
2023-04-29T01:18:38.314Z,0.8692
2023-04-29T01:19:41.248Z,0.7615
2023-04-29T01:20:44.227Z,0.7615
2023-04-29T01:21:47.157Z,0.7231
2023-04-29T01:22:50.106Z,0.8308
2023-04-29T01:23:53.044Z,0.8462
2023-04-29T01:24:55.997Z,0.8769
2023-04-29T01:25:58.932Z,0.9231
2023-04-29T01:27:01.902Z,1.0462
2023-04-29T01:28:04.855Z,0.8308
2023-04-29T01:29:07.803Z,0.8154
2023-04-29T01:30:10.734Z,0.9615
2023-04-29T01:31:13.742Z,0.9154
2023-04-29T01:32:16.646Z,0.8538
2023-04-29T01:33:19.590Z,0.7692
2023-04-29T01:34:22.583Z,0.8385
2023-04-29T01:35:25.504Z,0.8462
2023-04-29T01:36:28.426Z,0.8923
2023-04-29T01:37:31.408Z,0.9385
2023-04-29T01:38:34.346Z,0.8615
2023-04-29T01:39:37.290Z,0.9231
2023-04-29T01:40:40.214Z,1.0308
2023-04-29T01:41:43.315Z,1.1462
2023-04-29T01:42:46.106Z,0.9462
2023-04-29T01:43:49.085Z,0.9000
2023-04-29T01:44:52.118Z,0.8923
2023-04-29T01:45:54.954Z,0.8769
2023-04-29T01:46:57.950Z,0.8846
2023-04-29T01:48:01.008Z,0.9077
2023-04-29T01:49:03.828Z,1.0846
2023-04-29T01:50:06.789Z,1.0923
2023-04-29T01:51:09.709Z,0.8692
2023-04-29T01:52:12.665Z,0.9385
2023-04-29T01:53:15.739Z,0.8769
2023-04-29T01:54:18.599Z,1.1077
2023-04-29T01:55:21.574Z,0.9615
2023-04-29T01:56:24.526Z,0.9000
2023-04-29T01:57:27.467Z,1.0000
2023-04-29T01:58:30.408Z,1.0615
2023-04-29T01:59:33.329Z,1.2231
2023-04-29T02:00:36.300Z,1.2923
2023-04-29T02:01:39.234Z,1.1769
2023-04-29T02:02:42.217Z,1.0154
2023-04-29T02:03:45.207Z,1.0308
2023-04-29T02:04:48.091Z,1.1000
2023-04-29T02:05:51.013Z,1.1385
2023-04-29T02:06:53.984Z,1.1231
2023-04-29T02:07:56.919Z,1.1462
2023-04-29T02:08:59.859Z,1.0923
2023-04-29T02:10:02.807Z,1.1538
2023-04-29T02:11:05.786Z,1.1692
2023-04-29T02:12:08.735Z,1.1692
2023-04-29T02:13:11.678Z,1.1462
2023-04-29T02:14:14.616Z,1.1923
2023-04-29T02:15:17.574Z,1.2154
2023-04-29T02:16:20.559Z,1.3000
2023-04-29T02:17:23.504Z,1.1846
2023-04-29T02:18:26.402Z,1.2077
2023-04-29T02:19:29.479Z,1.2615
2023-04-29T02:20:32.323Z,1.2154
2023-04-29T02:21:35.380Z,1.2385
2023-04-29T02:22:38.206Z,1.2231
2023-04-29T02:23:41.153Z,1.1385
2023-04-29T02:24:44.257Z,1.2462
2023-04-29T02:25:47.044Z,1.3000
2023-04-29T02:26:49.995Z,1.4385
2023-04-29T02:27:52.940Z,1.7154
2023-04-29T02:28:55.885Z,1.3385
2023-04-29T02:29:58.862Z,1.3308
2023-04-29T02:31:01.810Z,1.4538
2023-04-29T02:32:04.811Z,1.4000
2023-04-29T02:33:08.466Z,1.4615
2023-04-29T02:34:10.611Z,1.4538
2023-04-29T02:35:13.562Z,1.5231
2023-04-29T02:36:16.519Z,1.4385
2023-04-29T02:37:19.450Z,1.6538
2023-04-29T02:38:22.419Z,1.5385
2023-04-29T02:39:25.379Z,1.4846
2023-04-29T02:40:28.324Z,1.3846
2023-04-29T02:41:31.237Z,1.3538
2023-04-29T02:42:34.194Z,1.1846
2023-04-29T02:43:37.148Z,1.2231
2023-04-29T02:44:40.112Z,1.4308
2023-04-29T02:45:43.112Z,1.5538
2023-04-29T02:46:45.982Z,1.4462
2023-04-29T02:47:48.940Z,1.4000
2023-04-29T02:48:51.875Z,1.3769
2023-04-29T02:49:54.927Z,1.3154
2023-04-29T02:50:57.746Z,1.3385
2023-04-29T02:52:00.691Z,1.6154
2023-04-29T02:53:03.673Z,1.3846
2023-04-29T02:54:06.580Z,1.3077
2023-04-29T02:55:09.549Z,1.4769
2023-04-29T02:56:12.460Z,1.5154
2023-04-29T02:57:15.460Z,1.4154
2023-04-29T02:58:18.353Z,1.6692
2023-04-29T02:59:21.291Z,1.4769
2023-04-29T03:00:24.249Z,1.4000
2023-04-29T03:01:27.232Z,1.3000
2023-04-29T03:02:30.226Z,1.4000
2023-04-29T03:03:33.142Z,1.6385
2023-04-29T03:04:35.990Z,1.3231
2023-04-29T03:05:38.991Z,1.3846
2023-04-29T03:06:41.905Z,1.3846
2023-04-29T03:07:44.822Z,1.5308
2023-04-29T03:08:47.773Z,1.5692
2023-04-29T03:09:50.841Z,1.4077
2023-04-29T03:10:53.696Z,1.5462
2023-04-29T03:11:56.592Z,1.4154
2023-04-29T03:12:59.544Z,1.4308
2023-04-29T03:14:02.465Z,1.4615
2023-04-29T03:15:05.418Z,1.3538
2023-04-29T03:16:08.505Z,1.4154
2023-04-29T03:17:11.323Z,1.4462
2023-04-29T03:18:14.271Z,1.6538
2023-04-29T03:19:17.184Z,1.6231
2023-04-29T03:20:20.215Z,1.6000
2023-04-29T03:21:23.076Z,1.5615
2023-04-29T03:22:26.019Z,1.5000
2023-04-29T03:23:28.959Z,1.7385
2023-04-29T03:24:31.904Z,1.6462
2023-04-29T03:25:34.890Z,1.5923
2023-04-29T03:26:37.797Z,1.6154
2023-04-29T03:27:40.850Z,1.6308
2023-04-29T03:28:43.669Z,1.6308
2023-04-29T03:29:46.621Z,1.5538
2023-04-29T03:30:49.559Z,1.5385
2023-04-29T03:31:52.569Z,1.6154
2023-04-29T03:32:55.631Z,1.5385
2023-04-29T03:33:58.387Z,1.6308
2023-04-29T03:35:01.332Z,1.6538
2023-04-29T03:36:04.279Z,1.6000
2023-04-29T03:37:07.251Z,1.6462
2023-04-29T03:38:10.165Z,1.8846
2023-04-29T03:39:13.103Z,1.7846
2023-04-29T03:40:16.050Z,1.5692
2023-04-29T03:41:18.985Z,1.5846
2023-04-29T03:42:21.918Z,1.5538
2023-04-29T03:43:24.867Z,1.5538
2023-04-29T03:44:27.793Z,1.6308
2023-04-29T03:45:30.726Z,1.8231
2023-04-29T03:46:33.768Z,1.8692
2023-04-29T03:47:36.676Z,1.7077
2023-04-29T03:48:39.566Z,1.7308
2023-04-29T03:49:42.525Z,1.4462
2023-04-29T03:50:45.440Z,1.7154
2023-04-29T03:51:48.376Z,1.8385
2023-04-29T03:52:51.352Z,1.9077
2023-04-29T03:53:54.283Z,1.5923
2023-04-29T03:54:57.261Z,1.5846
2023-04-29T03:56:00.145Z,1.5000
2023-04-29T03:57:03.143Z,1.8077
2023-04-29T03:58:06.010Z,1.5615
2023-04-29T03:59:08.973Z,1.4462
2023-04-29T04:00:11.906Z,1.5308
2023-04-29T04:01:14.846Z,1.6231
2023-04-29T04:02:17.817Z,1.3692
2023-04-29T04:03:20.846Z,1.3615
2023-04-29T04:04:23.757Z,1.4615
2023-04-29T04:05:26.626Z,1.5769
2023-04-29T04:06:29.540Z,1.5923
2023-04-29T04:07:32.495Z,1.6077
2023-04-29T04:08:35.439Z,1.6923
2023-04-29T04:09:38.445Z,1.5308
2023-04-29T04:10:41.525Z,1.7385
2023-04-29T04:11:44.368Z,1.5846
2023-04-29T04:12:47.340Z,1.5538
2023-04-29T04:13:50.255Z,1.3846
2023-04-29T04:14:53.161Z,1.4385
2023-04-29T04:15:56.239Z,1.4154
2023-04-29T04:16:59.060Z,1.4000
2023-04-29T04:18:02.045Z,1.3846
2023-04-29T04:19:05.068Z,1.6385
2023-04-29T04:20:07.878Z,1.6538
2023-04-29T04:21:10.813Z,1.2692
2023-04-29T04:22:13.773Z,1.3462
2023-04-29T04:23:16.746Z,1.3538
2023-04-29T04:24:19.657Z,1.3769
2023-04-29T04:25:22.584Z,1.5615
2023-04-29T04:26:25.556Z,1.3231
2023-04-29T04:27:28.488Z,1.4692
2023-04-29T04:28:31.452Z,1.3923
2023-04-29T04:29:34.373Z,1.8769
2023-04-29T04:30:37.307Z,4.3000
2023-04-29T04:31:40.412Z,7.1538
2023-04-29T04:32:43.255Z,5.8231
2023-04-29T04:33:46.138Z,3.4077
2023-04-29T04:34:49.086Z,2.4000
2023-04-29T04:35:52.024Z,1.9385
2023-04-29T04:36:54.961Z,2.0154
2023-04-29T04:37:57.900Z,2.7615
2023-04-29T04:39:00.903Z,2.4385
2023-04-29T04:40:03.820Z,2.1154
2023-04-29T04:41:06.733Z,1.8000
2023-04-29T04:42:09.668Z,1.4538
2023-04-29T04:43:12.613Z,1.4000
2023-04-29T04:44:15.577Z,1.5000
2023-04-29T04:45:18.510Z,1.4692
2023-04-29T04:46:21.464Z,1.7231
2023-04-29T04:47:24.436Z,1.9308
2023-04-29T04:48:27.313Z,2.6615
2023-04-29T04:49:30.262Z,5.0923
2023-04-29T04:50:33.290Z,3.2154
2023-04-29T04:51:36.133Z,2.0231
2023-04-29T04:52:39.073Z,1.8385
2023-04-29T04:53:42.027Z,2.2769
2023-04-29T04:54:44.964Z,2.4462
2023-04-29T04:55:47.921Z,1.8154
2023-04-29T04:56:50.830Z,1.9308
2023-04-29T04:57:53.798Z,1.8385
2023-04-29T04:58:56.748Z,1.7769
2023-04-29T04:59:59.678Z,1.6615
2023-04-29T05:01:02.694Z,1.7000
2023-04-29T05:02:05.562Z,1.9077
2023-04-29T05:03:08.722Z,2.1308
2023-04-29T05:04:11.599Z,2.1462
2023-04-29T05:05:14.387Z,7.5231
2023-04-29T05:06:17.319Z,3.4846
2023-04-29T05:07:20.299Z,5.7000
2023-04-29T05:08:23.211Z,3.3385
2023-04-29T05:09:26.165Z,2.1308
2023-04-29T05:10:29.136Z,1.8769
2023-04-29T05:11:32.028Z,1.7615
2023-04-29T05:12:34.995Z,1.7692
2023-04-29T05:13:37.949Z,1.6615
2023-04-29T05:14:40.859Z,1.5769
2023-04-29T05:15:43.804Z,1.6385
2023-04-29T05:16:46.855Z,1.5231
2023-04-29T05:17:49.808Z,1.6538
2023-04-29T05:18:52.612Z,1.7385
2023-04-29T05:19:55.559Z,1.7154
2023-04-29T05:20:58.544Z,1.6846
2023-04-29T05:22:01.467Z,1.6769
2023-04-29T05:23:04.400Z,1.6692
2023-04-29T05:24:07.348Z,1.6308
2023-04-29T05:25:10.342Z,2.0538
2023-04-29T05:26:13.204Z,2.8923
2023-04-29T05:27:16.150Z,3.3000
2023-04-29T05:28:19.159Z,3.3538
2023-04-29T05:29:22.027Z,2.8846
2023-04-29T05:30:24.974Z,2.8154
2023-04-29T05:31:27.981Z,3.1538
2023-04-29T05:32:30.871Z,3.2000
2023-04-29T05:33:33.811Z,3.5308
2023-04-29T05:34:36.737Z,4.0000
2023-04-29T05:35:39.744Z,4.3615
2023-04-29T05:36:42.618Z,4.6154
2023-04-29T05:37:45.567Z,4.7846
2023-04-29T05:38:48.705Z,4.7000
2023-04-29T05:39:51.614Z,4.6615
2023-04-29T05:40:54.419Z,4.9923
2023-04-29T05:41:58.238Z,5.1000
2023-04-29T05:43:00.274Z,5.3308
2023-04-29T05:44:03.210Z,5.0462
2023-04-29T05:45:06.142Z,4.6846
2023-04-29T05:46:09.131Z,4.6615
2023-04-29T05:47:14.279Z,4.8231
2023-04-29T05:48:14.978Z,4.6769
2023-04-29T05:49:18.002Z,4.5846
2023-04-29T05:50:20.903Z,4.3538
2023-04-29T05:51:23.805Z,4.3769
2023-04-29T05:52:26.754Z,4.3385
2023-04-29T05:53:29.741Z,4.3077
2023-04-29T05:54:32.687Z,4.1692
2023-04-29T05:55:35.650Z,4.1923
2023-04-29T05:56:38.553Z,3.7692
2023-04-29T05:57:41.475Z,3.6385
2023-04-29T05:58:44.411Z,3.5615
2023-04-29T05:59:47.366Z,3.2154
2023-04-29T06:00:50.298Z,3.1000
2023-04-29T06:01:53.564Z,3.2615
2023-04-29T06:02:59.118Z,3.1308
2023-04-29T06:03:59.330Z,2.8462
2023-04-29T06:05:02.245Z,2.8385
2023-04-29T06:06:05.049Z,2.8769
2023-04-29T06:07:07.979Z,2.5769
2023-04-29T06:08:10.924Z,2.4846
2023-04-29T06:09:26.369Z,2.3077
2023-04-29T06:10:16.807Z,2.3077
2023-04-29T06:11:19.764Z,2.3077
2023-04-29T06:12:22.750Z,2.3462
2023-04-29T06:13:25.692Z,2.1308
2023-04-29T06:14:28.644Z,2.1154
2023-04-29T06:15:31.595Z,2.4462
2023-04-29T06:16:34.517Z,2.4385
2023-04-29T06:17:37.523Z,2.5231
2023-04-29T06:18:40.406Z,2.6538
2023-04-29T06:19:43.359Z,2.7462
2023-04-29T06:20:46.300Z,2.9077
2023-04-29T06:21:49.266Z,2.8615
2023-04-29T06:22:52.183Z,3.0462
2023-04-29T06:23:55.150Z,2.9846
2023-04-29T06:24:58.082Z,2.9692
2023-04-29T06:26:01.050Z,2.8538
2023-04-29T06:27:03.998Z,2.8538
2023-04-29T06:28:06.950Z,2.8769
2023-04-29T06:29:09.871Z,3.0077
2023-04-29T06:30:12.819Z,3.2077
2023-04-29T06:31:15.797Z,3.8231
2023-04-29T06:32:18.722Z,3.9385
2023-04-29T06:33:21.706Z,4.1769
2023-04-29T06:34:24.623Z,4.5000
2023-04-29T06:35:27.552Z,4.5462
2023-04-29T06:36:30.509Z,4.5462
2023-04-29T06:37:34.393Z,4.9846
2023-04-29T06:38:36.458Z,4.8154
2023-04-29T06:39:39.389Z,4.8231
2023-04-29T06:40:42.292Z,5.6000
2023-04-29T06:41:45.251Z,5.2385
2023-04-29T06:42:48.197Z,5.5692
2023-04-29T06:43:51.126Z,5.6000
2023-04-29T06:44:54.107Z,4.9923
2023-04-29T06:45:57.169Z,4.5615
2023-04-29T06:46:59.977Z,4.5385
2023-04-29T06:48:02.995Z,4.6385
2023-04-29T06:49:05.864Z,4.3154
2023-04-29T06:50:08.831Z,4.5462
2023-04-29T06:51:11.769Z,4.5615
2023-04-29T06:52:14.717Z,4.5077
2023-04-29T06:53:17.671Z,4.1923
2023-04-29T06:54:20.623Z,4.2462
2023-04-29T06:55:23.568Z,4.2462
2023-04-29T06:56:26.488Z,4.4000
2023-04-29T06:57:29.468Z,4.4538
2023-04-29T06:58:32.385Z,4.6692
2023-04-29T06:59:35.334Z,4.2462
2023-04-29T07:00:38.271Z,4.4000
2023-04-29T07:01:43.957Z,4.2538
2023-04-29T07:02:44.279Z,4.2308
2023-04-29T07:03:47.253Z,4.1846
2023-04-29T07:04:50.116Z,4.0615
2023-04-29T07:05:53.021Z,4.0923
2023-04-29T07:06:55.955Z,4.0846
2023-04-29T07:07:58.931Z,3.8615
2023-04-29T07:09:01.832Z,3.3462
2023-04-29T07:10:04.796Z,3.3000
2023-04-29T07:11:07.722Z,3.2308
2023-04-29T07:12:10.656Z,3.1692
2023-04-29T07:13:13.615Z,2.8462
2023-04-29T07:14:16.667Z,2.9385
2023-04-29T07:15:19.522Z,2.8308
2023-04-29T07:16:22.597Z,2.7538
2023-04-29T07:17:25.601Z,2.6846
2023-04-29T07:18:28.343Z,2.8000
2023-04-29T07:19:31.274Z,3.0462
2023-04-29T07:20:34.287Z,3.1308
2023-04-29T07:21:37.157Z,2.9538
2023-04-29T07:22:40.114Z,3.1385
2023-04-29T07:23:43.101Z,3.0000
2023-04-29T07:24:46.001Z,3.0077
2023-04-29T07:25:49.071Z,2.8077
2023-04-29T07:26:51.896Z,2.7462
2023-04-29T07:27:54.832Z,2.5154
2023-04-29T07:28:57.813Z,2.5308
2023-04-29T07:30:00.736Z,2.5308
2023-04-29T07:31:03.687Z,2.5615
2023-04-29T07:32:06.613Z,2.8000
2023-04-29T07:33:09.544Z,2.8231
2023-04-29T07:34:12.489Z,2.7846
2023-04-29T07:35:15.415Z,3.0154
2023-04-29T07:36:18.401Z,3.0077
2023-04-29T07:37:21.286Z,3.0538
2023-04-29T07:38:24.231Z,2.7538
2023-04-29T07:39:27.195Z,2.6231
2023-04-29T07:40:30.138Z,2.7692
2023-04-29T07:41:33.053Z,2.7231
2023-04-29T07:42:35.997Z,2.7077
2023-04-29T07:43:41.586Z,2.9308
2023-04-29T07:44:41.880Z,2.8615
2023-04-29T07:45:44.831Z,2.7615
2023-04-29T07:46:47.860Z,2.5846
2023-04-29T07:47:50.760Z,2.5692
2023-04-29T07:48:53.649Z,2.5308
2023-04-29T07:49:56.561Z,2.4923
2023-04-29T07:50:59.530Z,2.5385
2023-04-29T07:52:02.444Z,2.6538
2023-04-29T07:53:05.389Z,2.3231
2023-04-29T07:54:08.347Z,2.3769
2023-04-29T07:55:11.295Z,2.3846
2023-04-29T07:56:14.220Z,2.4231
2023-04-29T07:57:17.170Z,2.5923
2023-04-29T07:58:20.115Z,2.3385
2023-04-29T07:59:23.030Z,2.2154
2023-04-29T08:00:25.946Z,1.9462
2023-04-29T08:01:28.891Z,2.1923
2023-04-29T08:02:32.069Z,2.0154
2023-04-29T08:03:35.578Z,1.8846
2023-04-29T08:04:37.824Z,1.8846
2023-04-29T08:05:40.680Z,1.9923
2023-04-29T08:06:43.573Z,2.2308
2023-04-29T08:07:46.515Z,2.2692
2023-04-29T08:08:49.469Z,2.0846
2023-04-29T08:09:52.403Z,1.8692
2023-04-29T08:10:55.352Z,1.8462
2023-04-29T08:11:58.276Z,1.9615
2023-04-29T08:13:01.214Z,1.8846
2023-04-29T08:14:04.160Z,1.8154
2023-04-29T08:15:09.032Z,2.0308
2023-04-29T08:16:10.075Z,1.8538
2023-04-29T08:17:12.958Z,1.6462
2023-04-29T08:18:15.893Z,1.8231
2023-04-29T08:19:19.048Z,1.7769
2023-04-29T08:20:21.882Z,1.8385
2023-04-29T08:21:24.863Z,1.8077
2023-04-29T08:22:27.831Z,1.7538
2023-04-29T08:23:30.673Z,1.7231
2023-04-29T08:24:33.676Z,1.7154
2023-04-29T08:25:36.558Z,1.7385
2023-04-29T08:26:39.508Z,1.7385
2023-04-29T08:27:42.427Z,1.6846
2023-04-29T08:28:45.399Z,1.6077
2023-04-29T08:29:48.324Z,1.6615
2023-04-29T08:30:51.460Z,1.6231
2023-04-29T08:31:54.228Z,1.5538
2023-04-29T08:32:57.171Z,1.5769
2023-04-29T08:34:00.088Z,1.4923
2023-04-29T08:35:03.054Z,1.2923
2023-04-29T08:36:05.957Z,1.3308
2023-04-29T08:37:08.902Z,1.3385
2023-04-29T08:38:11.838Z,1.4231
2023-04-29T08:39:14.794Z,1.2846
2023-04-29T08:40:17.996Z,1.2154
2023-04-29T08:41:20.693Z,1.2692
2023-04-29T08:42:23.606Z,1.1231
2023-04-29T08:43:26.636Z,0.9692
2023-04-29T08:44:29.507Z,1.0308
2023-04-29T08:45:32.603Z,1.1538
2023-04-29T08:46:35.404Z,1.0000
2023-04-29T08:47:38.390Z,0.9923
2023-04-29T08:48:44.130Z,0.9769
2023-04-29T08:49:44.190Z,0.9692
2023-04-29T08:50:47.130Z,0.9154
2023-04-29T08:51:50.134Z,0.9846
2023-04-29T08:52:53.032Z,0.8462
2023-04-29T08:53:55.964Z,1.0154
2023-04-29T08:54:58.910Z,0.9769
2023-04-29T08:56:01.853Z,1.0846
2023-04-29T08:57:04.812Z,1.1385
2023-04-29T08:58:07.729Z,0.8538
2023-04-29T08:59:10.720Z,0.8462
2023-04-29T09:00:13.655Z,0.9000
2023-04-29T09:01:16.614Z,1.0308
2023-04-29T09:02:19.620Z,0.8846
2023-04-29T09:03:22.518Z,0.7615
2023-04-29T09:04:25.458Z,0.8077
2023-04-29T09:05:28.346Z,0.8846
2023-04-29T09:06:31.293Z,0.9615
2023-04-29T09:07:34.216Z,0.7154
2023-04-29T09:08:37.176Z,0.4462
2023-04-29T09:09:40.113Z,0.5385
2023-04-29T09:10:43.066Z,0.5385
2023-04-29T09:11:46.026Z,0.5923
2023-04-29T09:12:48.941Z,0.5538
2023-04-29T09:13:51.984Z,0.4692
2023-04-29T09:14:55.401Z,0.4923
2023-04-29T09:15:57.832Z,0.5846
2023-04-29T09:17:00.736Z,0.5769
2023-04-29T09:18:03.724Z,0.5615
2023-04-29T09:19:06.597Z,0.4923
2023-04-29T09:20:09.570Z,0.4923
2023-04-29T09:21:12.521Z,0.5231
2023-04-29T09:22:15.476Z,0.6231
2023-04-29T09:23:18.409Z,0.5385
2023-04-29T09:24:21.332Z,0.4846
2023-04-29T09:25:24.299Z,0.6077
2023-04-29T09:26:27.229Z,0.4231
2023-04-29T09:27:30.203Z,0.4385
2023-04-29T09:28:33.144Z,0.4462
2023-04-29T09:29:36.082Z,0.4692
2023-04-29T09:30:39.043Z,0.5231
2023-04-29T09:31:42.052Z,0.5154
2023-04-29T09:32:45.030Z,0.5308
2023-04-29T09:33:47.878Z,0.4462
2023-04-29T09:34:51.034Z,0.4923
2023-04-29T09:35:53.797Z,0.4923
2023-04-29T09:36:56.715Z,0.5846
2023-04-29T09:37:59.644Z,0.5154
2023-04-29T09:39:02.579Z,0.4154
2023-04-29T09:40:05.619Z,0.4231
2023-04-29T09:41:08.447Z,0.3846
2023-04-29T09:42:11.400Z,0.4769
2023-04-29T09:43:14.348Z,0.4000
2023-04-29T09:44:17.284Z,0.4077
2023-04-29T09:45:20.215Z,0.4231
2023-04-29T09:46:23.210Z,0.3692
2023-04-29T09:47:26.115Z,0.3615
2023-04-29T09:48:29.056Z,0.4769
2023-04-29T09:49:32.006Z,0.4615
2023-04-29T09:50:34.932Z,0.3692
2023-04-29T09:51:37.871Z,0.3692
2023-04-29T09:52:40.884Z,0.4154
2023-04-29T09:53:43.778Z,0.4077
2023-04-29T09:54:46.708Z,0.5462
2023-04-29T09:55:49.689Z,0.3692
2023-04-29T09:56:52.617Z,0.4077
2023-04-29T09:57:55.548Z,0.4385
2023-04-29T09:58:58.510Z,0.4462
2023-04-29T10:00:01.520Z,0.4000
2023-04-29T10:01:04.415Z,0.4308
2023-04-29T10:02:07.322Z,0.3462
2023-04-29T10:03:10.364Z,0.5000
2023-04-29T10:04:13.348Z,0.4231
2023-04-29T10:05:16.284Z,0.5462
2023-04-29T10:06:19.135Z,0.3846
2023-04-29T10:07:22.126Z,0.4538
2023-04-29T10:08:25.113Z,0.4923
2023-04-29T10:09:28.228Z,0.4308
2023-04-29T10:10:30.909Z,0.3538
2023-04-29T10:11:33.900Z,0.3923
2023-04-29T10:12:36.781Z,0.4000
2023-04-29T10:13:39.731Z,0.5385
2023-04-29T10:14:42.743Z,0.3538
2023-04-29T10:15:45.602Z,0.4077
2023-04-29T10:16:48.623Z,0.4692
2023-04-29T10:17:51.492Z,0.3308
2023-04-29T10:18:54.599Z,0.4692
2023-04-29T10:19:57.375Z,0.4077
2023-04-29T10:21:00.358Z,0.4308
2023-04-29T10:22:03.283Z,0.3769
2023-04-29T10:23:06.263Z,0.4462
2023-04-29T10:24:09.153Z,0.3538
2023-04-29T10:25:12.107Z,0.4538
2023-04-29T10:26:15.045Z,0.3846
2023-04-29T10:27:17.990Z,0.4462
2023-04-29T10:28:20.953Z,0.3923
2023-04-29T10:29:23.906Z,0.3538
2023-04-29T10:30:26.860Z,0.4846
2023-04-29T10:31:29.789Z,0.4000
2023-04-29T10:32:43.471Z,0.3692
2023-04-29T10:33:35.810Z,0.3538
2023-04-29T10:34:38.594Z,0.3615
2023-04-29T10:35:41.575Z,0.4154
2023-04-29T10:36:44.485Z,0.4000
2023-04-29T10:37:47.450Z,0.3846
2023-04-29T10:38:50.394Z,0.4308
2023-04-29T10:39:53.326Z,0.3462
2023-04-29T10:40:56.374Z,0.3615
2023-04-29T10:41:59.369Z,0.4308
2023-04-29T10:43:02.326Z,0.4231
2023-04-29T10:44:05.144Z,0.4769
2023-04-29T10:45:08.085Z,0.4231
2023-04-29T10:46:11.059Z,0.4000
2023-04-29T10:47:13.962Z,0.4077
2023-04-29T10:48:16.902Z,0.3231
2023-04-29T10:49:19.863Z,0.3615
2023-04-29T10:50:22.827Z,0.4385
2023-04-29T10:51:25.802Z,0.6231
2023-04-29T10:52:28.739Z,0.5154
2023-04-29T10:53:31.676Z,0.4385
2023-04-29T10:54:34.606Z,0.3769
2023-04-29T10:55:37.565Z,0.3538
2023-04-29T10:56:40.592Z,0.3385
2023-04-29T10:57:43.602Z,0.3923
2023-04-29T10:58:46.608Z,0.3692
2023-04-29T10:59:49.623Z,0.4923
2023-04-29T11:00:52.540Z,0.3769
2023-04-29T11:01:55.461Z,0.2462
2023-04-29T11:02:58.432Z,0.2538
2023-04-29T11:04:01.524Z,0.3462
2023-04-29T11:05:04.402Z,0.3538
2023-04-29T11:06:07.259Z,0.3077
2023-04-29T11:07:10.238Z,0.3923
2023-04-29T11:08:13.163Z,0.3000
2023-04-29T11:09:16.298Z,0.3231
2023-04-29T11:10:19.106Z,0.3615
2023-04-29T11:11:22.017Z,0.3462
2023-04-29T11:12:24.993Z,0.3846
2023-04-29T11:13:27.942Z,0.4308
2023-04-29T11:14:30.886Z,0.3385
2023-04-29T11:15:33.896Z,0.3231
2023-04-29T11:16:36.805Z,0.5769
2023-04-29T11:17:39.733Z,0.3846
2023-04-29T11:18:42.705Z,0.3462
2023-04-29T11:19:45.671Z,0.3615
2023-04-29T11:20:48.591Z,0.4692
2023-04-29T11:21:51.520Z,0.6077
2023-04-29T11:22:54.476Z,0.4615
2023-04-29T11:23:57.445Z,0.3308
2023-04-29T11:25:00.449Z,0.2846
2023-04-29T11:26:03.412Z,0.3462
2023-04-29T11:27:06.346Z,0.2923
2023-04-29T11:28:09.287Z,0.2615
2023-04-29T11:29:12.283Z,0.3538
2023-04-29T11:30:15.217Z,0.3615
2023-04-29T11:31:18.184Z,0.3923
2023-04-29T11:32:21.148Z,0.4692
2023-04-29T11:33:24.097Z,0.5385
2023-04-29T11:34:27.016Z,0.4846
2023-04-29T11:35:29.974Z,0.4000
2023-04-29T11:36:32.903Z,0.3231
2023-04-29T11:37:35.889Z,0.3846
2023-04-29T11:38:38.922Z,0.3615
2023-04-29T11:39:41.769Z,0.4462
2023-04-29T11:40:44.701Z,0.2923
2023-04-29T11:41:47.669Z,0.3462
2023-04-29T11:42:50.709Z,0.3231
2023-04-29T11:43:53.638Z,0.4000
2023-04-29T11:44:56.519Z,0.3231
2023-04-29T11:45:59.536Z,0.2462
2023-04-29T11:47:02.436Z,0.3308
2023-04-29T11:48:05.470Z,0.4231
2023-04-29T11:49:08.317Z,0.4231
2023-04-29T11:50:11.372Z,0.4000
2023-04-29T11:51:14.250Z,0.3385
2023-04-29T11:52:17.193Z,0.3692
2023-04-29T11:53:20.124Z,0.4154
2023-04-29T11:54:23.115Z,0.4538
2023-04-29T11:55:26.046Z,0.4154
2023-04-29T11:56:29.071Z,0.3692
2023-04-29T11:57:31.979Z,0.5231
2023-04-29T11:58:34.890Z,0.4154
2023-04-29T11:59:37.878Z,0.6231
2023-04-29T12:00:40.790Z,0.5538
2023-04-29T12:01:43.753Z,0.4154
2023-04-29T12:02:47.494Z,0.4615
2023-04-29T12:03:49.840Z,0.3769
2023-04-29T12:04:52.999Z,0.3231
2023-04-29T12:05:55.673Z,0.3538
2023-04-29T12:06:58.491Z,0.5308
2023-04-29T12:08:01.552Z,0.5462
2023-04-29T12:09:04.442Z,0.3615
2023-04-29T12:10:07.358Z,0.3538
2023-04-29T12:11:10.305Z,0.3538
2023-04-29T12:12:13.250Z,0.3385
2023-04-29T12:13:16.216Z,0.3692
2023-04-29T12:14:19.171Z,0.4000
2023-04-29T12:15:22.121Z,0.3615
2023-04-29T12:16:25.147Z,0.3231
2023-04-29T12:17:28.033Z,0.2846
2023-04-29T12:18:31.026Z,0.3923
2023-04-29T12:19:33.969Z,0.4846
2023-04-29T12:20:36.904Z,0.4308
2023-04-29T12:21:39.903Z,0.4538
2023-04-29T12:22:42.808Z,0.3385
2023-04-29T12:23:45.776Z,0.3154
2023-04-29T12:24:48.722Z,0.3769
2023-04-29T12:25:51.663Z,0.4308
2023-04-29T12:26:54.642Z,0.3692
2023-04-29T12:27:57.575Z,0.4231
2023-04-29T12:29:00.575Z,0.4462
2023-04-29T12:30:03.478Z,0.4000
2023-04-29T12:31:06.477Z,0.4000
2023-04-29T12:32:09.412Z,0.4615
2023-04-29T12:33:12.451Z,0.5615
2023-04-29T12:34:15.373Z,0.5385
2023-04-29T12:35:18.260Z,0.6154
2023-04-29T12:36:21.221Z,0.7000
2023-04-29T12:37:24.185Z,0.7154
2023-04-29T12:38:27.149Z,0.7462
2023-04-29T12:39:30.107Z,0.6231
2023-04-29T12:40:33.088Z,0.8923
2023-04-29T12:41:36.026Z,0.6000
2023-04-29T12:42:38.941Z,0.5846
2023-04-29T12:43:41.905Z,0.6615
2023-04-29T12:44:44.970Z,0.6231
2023-04-29T12:45:47.794Z,0.6462
2023-04-29T12:46:50.774Z,0.6923
2023-04-29T12:47:53.721Z,0.7692
2023-04-29T12:48:56.686Z,0.7615
2023-04-29T12:49:59.606Z,0.7692
2023-04-29T12:51:02.528Z,0.8385
2023-04-29T12:52:05.512Z,0.6846
2023-04-29T12:53:08.520Z,0.6615
2023-04-29T12:54:11.377Z,0.7385
2023-04-29T12:55:14.313Z,0.8385
2023-04-29T12:56:17.266Z,0.6538
2023-04-29T12:57:20.253Z,0.5846
2023-04-29T12:58:23.171Z,0.6385
2023-04-29T12:59:26.170Z,0.6846
2023-04-29T13:00:29.053Z,0.7385
2023-04-29T13:01:32.012Z,0.6615
2023-04-29T13:02:36.790Z,0.7077
2023-04-29T13:03:38.050Z,0.7615
2023-04-29T13:04:41.598Z,0.7923
2023-04-29T13:05:43.792Z,0.7769